Terminal Aerodrome Forecast
Issued by NWS Jackson, MS

Home | Current Version | Previous Version | Text Only | Print | Product List | Glossary On
Versions: 1 2 3 4 5 6 7 8 9
895
FTUS44 KJAN 231720
TAFMEI
TAF
KMEI 231720Z 2318/2418 31010G21KT P6SM BKN025
     FM240200 32007KT P6SM BKN025
     FM241000 33006KT 6SM BR BKN015
     FM241700 33012G18KT P6SM BKN025=

USA.gov is the U.S. government's official web portal to all federal, state and local government web resources and services.